Flugplatz Stuttgart

Bericht für EDDS

vom 28.03. um 20:50 UTC

Wind 4 kt aus 180°

Sichtweite 10 km oder mehr

gering bewölkt in 4000 ft

Temperatur 7.0°C

Taupunkt -2.0°C

Luftfeuchtigkeit 53%

Luftdruck 1021 hPa

EDDS 282050Z AUTO 18004KT 140V280 9999 FEW040 07/M02 Q1021

Prognose für EDDS

vom 28.03. um 17:00 UTC

Zwischen 18:00 UTC und 05:00 UTC

Wind 4 kt aus 140°

Sichtweite 10 km oder mehr

keine signifikanten Wettererscheinungen

keine Wolken


Am 29.03. zwischen 05:00 und 07:00 UTC übergehend zu

Wind 5 kt aus 220°

Sichtweite 10 km oder mehr

keine signifikanten Wettererscheinungen

keine Wolken


Am 29.03. zwischen 08:00 und 10:00 UTC übergehend zu

Wind 10 kt aus 240°

Sichtweite 10 km oder mehr

keine signifikanten Wettererscheinungen

keine Wolken


Am 29.03. zwischen 14:00 und 16:00 UTC übergehend zu

Wind 4 kt aus 180°

Sichtweite 10 km oder mehr

keine signifikanten Wettererscheinungen

keine Wolken

TAF EDDS 281700Z 2818/2918 14004KT CAVOK BECMG 2905/2907 22005KT BECMG 2908/2910 24010KT BECMG 2914/2916 18004KT
Impressum